Time;durP1;ratioP1;P1;durP2;ratioP2;P2;SDS_P1;SDS_P2;PMS_P1;PMS_P2;Temp;Humidity;BMP_temperature;BMP_pressure;BME280_temperature;BME280_humidity;BME280_pressure;Samples;Min_cycle;Max_cycle;Signal;HPM_P1;HPM_P2
2022/08/10 00:00:52;;;;;;;5.43;4.47;;;;;;;;;;5032697;28;20383;-74
2022/08/10 00:03:18;;;;;;;5.35;4.43;;;;;;;;;;5065938;28;20072;-74
2022/08/10 00:05:44;;;;;;;4.43;3.80;;;;;;;;;;5064608;28;20481;-74
2022/08/10 00:08:10;;;;;;;5.07;4.50;;;;;;;;;;5065312;28;20045;-74
2022/08/10 00:10:36;;;;;;;4.60;4.20;;;;;;;;;;5033123;28;20611;-74
2022/08/10 00:13:02;;;;;;;5.32;4.32;;;;;;;;;;5032738;28;20477;-74
2022/08/10 00:15:28;;;;;;;5.20;4.70;;;;;;;;;;5038793;28;20037;-74
2022/08/10 00:17:54;;;;;;;5.03;4.63;;;;;;;;;;5052232;28;20045;-74
2022/08/10 00:20:20;;;;;;;6.35;5.05;;;;;;;;;;5050662;28;20044;-74
2022/08/10 00:22:47;;;;;;;5.53;5.03;;;;;;;;;;5050998;28;20057;-74
2022/08/10 00:25:13;;;;;;;5.15;4.65;;;;;;;;;;5032075;28;20045;-74
2022/08/10 00:27:39;;;;;;;5.75;5.15;;;;;;;;;;5032631;28;20095;-74
2022/08/10 00:30:06;;;;;;;8.50;5.13;;;;;;;;;;5033178;28;20045;-74
2022/08/10 00:32:32;;;;;;;5.88;4.88;;;;;;;;;;5065009;28;20083;-74
2022/08/10 00:34:58;;;;;;;5.18;4.75;;;;;;;;;;5064069;28;20053;-74
2022/08/10 00:37:24;;;;;;;5.78;5.28;;;;;;;;;;5033050;28;20471;-74
2022/08/10 00:39:50;;;;;;;5.90;4.97;;;;;;;;;;5033105;28;20412;-74
2022/08/10 00:42:16;;;;;;;5.85;5.22;;;;;;;;;;5064180;28;20045;-74
2022/08/10 00:44:46;;;;;;;5.20;4.70;;;;;;;;;;5064598;28;20060;-74
2022/08/10 00:47:13;;;;;;;5.80;4.85;;;;;;;;;;5032758;28;20085;-74
2022/08/10 00:49:39;;;;;;;5.68;5.18;;;;;;;;;;5042683;28;20102;-74
2022/08/10 00:52:06;;;;;;;6.18;5.57;;;;;;;;;;5052997;28;20384;-74
2022/08/10 00:54:34;;;;;;;5.47;4.97;;;;;;;;;;5052900;28;20037;-74
2022/08/10 00:57:00;;;;;;;5.57;5.07;;;;;;;;;;5039662;28;20079;-74
2022/08/10 00:59:26;;;;;;;5.95;5.20;;;;;;;;;;5031497;28;20056;-74
2022/08/10 01:01:52;;;;;;;5.78;5.28;;;;;;;;;;5030972;28;20045;-74
2022/08/10 01:04:18;;;;;;;5.25;4.75;;;;;;;;;;5032595;28;20171;-74
2022/08/10 01:06:53;;;;;;;5.60;4.72;;;;;;;;;;5030989;28;20504;-74
2022/08/10 01:09:22;;;;;;;5.45;4.95;;;;;;;;;;5064274;28;20053;-75
2022/08/10 01:11:58;;;;;;;5.82;5.13;;;;;;;;;;5046898;28;20051;-74
2022/08/10 01:14:43;;;;;;;5.25;4.75;;;;;;;;;;5050878;28;20048;-74
2022/08/10 01:17:21;;;;;;;5.80;5.18;;;;;;;;;;5031860;28;20123;-75
2022/08/10 01:19:57;;;;;;;5.28;4.78;;;;;;;;;;5031210;28;20174;-74
2022/08/10 01:22:27;;;;;;;6.25;5.15;;;;;;;;;;5030941;28;20414;-74
2022/08/10 01:24:53;;;;;;;5.50;4.97;;;;;;;;;;5031903;28;20060;-74
2022/08/10 01:27:33;;;;;;;5.38;4.88;;;;;;;;;;5032745;28;20049;-74
2022/08/10 01:30:01;;;;;;;5.47;4.95;;;;;;;;;;5032518;28;20063;-74
2022/08/10 01:32:39;;;;;;;5.53;4.90;;;;;;;;;;5064622;28;20524;-74
2022/08/10 01:35:13;;;;;;;5.95;4.90;;;;;;;;;;5064410;28;20056;-74
2022/08/10 01:37:43;;;;;;;6.00;4.88;;;;;;;;;;5034959;28;20052;-74
2022/08/10 01:40:12;;;;;;;5.85;5.25;;;;;;;;;;5032375;28;20131;-74
2022/08/10 01:42:40;;;;;;;5.25;4.75;;;;;;;;;;5041503;28;20049;-74
2022/08/10 01:45:08;;;;;;;6.75;5.25;;;;;;;;;;5050473;28;20093;-74
2022/08/10 01:50:32;;;;;;;5.80;5.05;;;;;;;;;;5052470;28;20045;-74
2022/08/10 01:53:05;;;;;;;5.60;5.03;;;;;;;;;;5034496;28;20053;-74
2022/08/10 01:55:32;;;;;;;5.60;5.10;;;;;;;;;;5034889;28;20072;-74
2022/08/10 01:58:00;;;;;;;5.88;5.32;;;;;;;;;;5035823;28;20042;-74
2022/08/10 02:00:27;;;;;;;5.60;5.10;;;;;;;;;;5035302;28;20464;-74
2022/08/10 02:02:53;;;;;;;5.22;4.72;;;;;;;;;;5067966;28;20417;-74
2022/08/10 02:05:21;;;;;;;5.95;5.07;;;;;;;;;;5074567;28;20397;-74
2022/08/10 02:07:48;;;;;;;5.97;5.20;;;;;;;;;;5055999;28;20036;-74
2022/08/10 02:10:15;;;;;;;5.93;5.05;;;;;;;;;;5056145;28;20052;-74
2022/08/10 02:12:42;;;;;;;5.82;5.32;;;;;;;;;;5040647;28;20077;-74
2022/08/10 02:15:10;;;;;;;5.85;5.30;;;;;;;;;;5050968;28;20465;-74
2022/08/10 02:17:40;;;;;;;6.25;5.40;;;;;;;;;;5035778;28;20037;-74
2022/08/10 02:20:12;;;;;;;5.65;4.75;;;;;;;;;;5034724;28;20045;-74
2022/08/10 02:22:39;;;;;;;6.75;5.22;;;;;;;;;;5067439;28;20061;-74
2022/08/10 02:25:06;;;;;;;5.40;4.90;;;;;;;;;;5035771;28;20045;-74
2022/08/10 02:27:33;;;;;;;5.28;4.70;;;;;;;;;;5034926;28;20045;-74
2022/08/10 02:30:00;;;;;;;6.28;5.10;;;;;;;;;;5034989;28;20049;-74
2022/08/10 02:32:26;;;;;;;5.85;5.35;;;;;;;;;;5067377;28;20124;-74
2022/08/10 02:34:54;;;;;;;6.18;5.38;;;;;;;;;;5034500;28;20397;-74
2022/08/10 02:37:22;;;;;;;6.25;5.65;;;;;;;;;;5035717;28;20425;-74
2022/08/10 02:39:48;;;;;;;6.40;5.80;;;;;;;;;;5035455;28;20042;-74
2022/08/10 02:42:23;;;;;;;7.60;5.40;;;;;;;;;;5035945;28;20048;-74
2022/08/10 02:45:15;;;;;;;5.85;5.35;;;;;;;;;;5055247;28;20041;-74
2022/08/10 02:47:47;;;;;;;6.60;6.00;;;;;;;;;;5036042;28;20823;-74
2022/08/10 02:50:29;;;;;;;6.95;6.10;;;;;;;;;;5034189;28;20396;-74
2022/08/10 02:53:17;;;;;;;6.65;5.70;;;;;;;;;;5035009;28;20448;-74
2022/08/10 02:55:55;;;;;;;7.07;6.35;;;;;;;;;;5033815;28;20103;-74
2022/08/10 02:58:31;;;;;;;6.97;6.28;;;;;;;;;;5035239;28;20079;-74
2022/08/10 03:00:59;;;;;;;6.80;6.13;;;;;;;;;;5066763;28;20060;-74
2022/08/10 03:03:26;;;;;;;8.20;7.18;;;;;;;;;;5072646;28;20064;-74
2022/08/10 03:05:57;;;;;;;6.72;6.13;;;;;;;;;;5053301;28;20083;-74
2022/08/10 03:08:25;;;;;;;6.90;6.10;;;;;;;;;;5054645;28;20505;-74
2022/08/10 03:10:52;;;;;;;7.20;6.50;;;;;;;;;;5052915;28;20075;-74
2022/08/10 03:13:18;;;;;;;7.63;6.43;;;;;;;;;;5042837;28;20052;-75
2022/08/10 03:15:45;;;;;;;6.63;6.03;;;;;;;;;;5034094;28;20048;-74
2022/08/10 03:18:11;;;;;;;8.15;5.82;;;;;;;;;;5033514;28;20549;-74
2022/08/10 03:20:40;;;;;;;6.68;5.95;;;;;;;;;;5034722;28;20056;-74
2022/08/10 03:23:14;;;;;;;6.88;6.20;;;;;;;;;;5045270;28;20049;-75
2022/08/10 03:25:41;;;;;;;6.65;5.95;;;;;;;;;;5054710;28;20048;-74
2022/08/10 03:28:08;;;;;;;6.95;6.30;;;;;;;;;;5052523;28;20106;-74
2022/08/10 03:30:34;;;;;;;6.80;6.10;;;;;;;;;;5032643;28;20053;-74
2022/08/10 03:33:02;;;;;;;8.73;6.35;;;;;;;;;;5033308;28;20049;-74
2022/08/10 03:35:28;;;;;;;7.47;6.25;;;;;;;;;;5033312;28;20056;-74
2022/08/10 03:37:54;;;;;;;7.03;6.13;;;;;;;;;;5034475;28;20041;-74
2022/08/10 03:40:20;;;;;;;6.68;6.07;;;;;;;;;;5052142;28;20041;-75
2022/08/10 03:42:47;;;;;;;6.88;6.20;;;;;;;;;;5049154;28;20572;-74
2022/08/10 03:45:13;;;;;;;7.65;6.85;;;;;;;;;;5032278;28;20100;-74
2022/08/10 03:47:40;;;;;;;7.70;6.90;;;;;;;;;;5034279;28;20045;-74
2022/08/10 03:50:08;;;;;;;8.05;6.90;;;;;;;;;;5033997;28;20041;-74
2022/08/10 03:52:34;;;;;;;7.75;6.95;;;;;;;;;;5033083;28;20048;-74
2022/08/10 03:55:00;;;;;;;7.55;6.82;;;;;;;;;;5033649;28;20041;-74
2022/08/10 03:57:28;;;;;;;8.25;6.65;;;;;;;;;;5033932;28;20472;-74
2022/08/10 03:59:55;;;;;;;7.88;7.18;;;;;;;;;;5064991;28;20053;-74
2022/08/10 04:02:21;;;;;;;7.10;6.40;;;;;;;;;;5065382;28;20045;-75
2022/08/10 04:04:47;;;;;;;8.45;6.90;;;;;;;;;;5069656;28;20053;-75
2022/08/10 04:07:13;;;;;;;8.30;6.95;;;;;;;;;;5053686;28;20047;-74
2022/08/10 04:09:39;;;;;;;9.45;7.47;;;;;;;;;;5053656;28;20132;-74
2022/08/10 04:12:06;;;;;;;8.35;6.85;;;;;;;;;;5051484;28;20061;-74
2022/08/10 04:14:32;;;;;;;7.35;6.65;;;;;;;;;;5039383;28;20045;-75
2022/08/10 04:16:58;;;;;;;8.20;7.35;;;;;;;;;;5031399;28;20046;-74
2022/08/10 04:19:24;;;;;;;7.93;6.97;;;;;;;;;;5032653;28;20037;-75
2022/08/10 04:21:54;;;;;;;8.02;6.82;;;;;;;;;;5033487;28;20045;-74
2022/08/10 04:24:21;;;;;;;7.80;7.05;;;;;;;;;;5032922;28;20045;-74
2022/08/10 04:26:47;;;;;;;7.72;6.95;;;;;;;;;;5032732;28;20045;-74
2022/08/10 04:29:13;;;;;;;7.57;6.88;;;;;;;;;;5065298;28;20045;-74
2022/08/10 04:31:40;;;;;;;7.40;6.57;;;;;;;;;;5033304;28;20045;-75
2022/08/10 04:34:06;;;;;;;9.15;7.35;;;;;;;;;;5064380;28;20054;-75
2022/08/10 04:36:32;;;;;;;7.50;6.60;;;;;;;;;;5065383;28;20397;-74
2022/08/10 04:38:58;;;;;;;8.25;7.30;;;;;;;;;;5033298;28;20480;-74
2022/08/10 04:41:25;;;;;;;8.38;7.40;;;;;;;;;;5032324;28;20041;-74
2022/08/10 04:43:51;;;;;;;7.75;6.95;;;;;;;;;;5082938;28;20132;-74
2022/08/10 04:46:16;;;;;;;10.77;6.97;;;;;;;;;;5050836;28;20132;-74
2022/08/10 04:48:42;;;;;;;7.65;6.90;;;;;;;;;;5031383;28;20421;-74
2022/08/10 04:51:09;;;;;;;8.27;7.47;;;;;;;;;;5033077;28;20041;-74
2022/08/10 04:53:36;;;;;;;9.23;7.10;;;;;;;;;;5032787;28;20045;-74
2022/08/10 04:56:02;;;;;;;8.00;7.28;;;;;;;;;;5032251;28;20087;-75
2022/08/10 04:58:28;;;;;;;8.43;7.05;;;;;;;;;;5032965;28;20041;-74
2022/08/10 05:00:54;;;;;;;8.57;7.28;;;;;;;;;;5064826;28;20551;-75
2022/08/10 05:03:20;;;;;;;11.52;7.43;;;;;;;;;;5069184;28;20045;-75
2022/08/10 05:05:46;;;;;;;8.02;7.10;;;;;;;;;;5051297;28;20053;-75
2022/08/10 05:08:12;;;;;;;10.60;7.35;;;;;;;;;;5032294;28;20135;-74
2022/08/10 05:10:38;;;;;;;9.27;7.97;;;;;;;;;;5031466;28;20493;-75
2022/08/10 05:13:04;;;;;;;8.68;7.13;;;;;;;;;;5031526;28;20049;-75
2022/08/10 05:15:30;;;;;;;8.20;7.40;;;;;;;;;;5063917;28;20893;-74
2022/08/10 05:17:56;;;;;;;9.32;7.32;;;;;;;;;;5064515;28;20045;-75
2022/08/10 05:20:22;;;;;;;7.32;6.57;;;;;;;;;;5064182;28;20180;-75
2022/08/10 05:22:48;;;;;;;9.75;7.32;;;;;;;;;;5074679;28;20045;-75
2022/08/10 05:25:16;;;;;;;8.40;7.03;;;;;;;;;;5051027;28;20088;-74
2022/08/10 05:27:42;;;;;;;8.02;6.88;;;;;;;;;;5052351;28;20049;-74
2022/08/10 05:30:10;;;;;;;7.68;6.90;;;;;;;;;;5055831;28;20041;-74
2022/08/10 05:32:36;;;;;;;9.13;7.45;;;;;;;;;;5039942;28;20048;-74
2022/08/10 05:35:04;;;;;;;9.38;7.18;;;;;;;;;;5034875;28;20080;-74
2022/08/10 05:37:30;;;;;;;10.40;7.60;;;;;;;;;;5035516;28;20050;-74
2022/08/10 05:39:56;;;;;;;8.88;7.05;;;;;;;;;;5074944;28;20451;-74
2022/08/10 05:42:23;;;;;;;8.52;7.53;;;;;;;;;;5056024;28;20485;-75
2022/08/10 05:44:50;;;;;;;9.60;8.15;;;;;;;;;;5047677;28;20453;-74
2022/08/10 05:47:16;;;;;;;8.95;7.85;;;;;;;;;;5034813;28;20049;-74
2022/08/10 05:49:42;;;;;;;10.48;7.97;;;;;;;;;;5035788;28;20042;-75
2022/08/10 05:52:08;;;;;;;9.07;8.18;;;;;;;;;;5067317;28;20057;-74
2022/08/10 05:54:34;;;;;;;10.82;7.40;;;;;;;;;;5068194;28;20420;-74
2022/08/10 05:57:01;;;;;;;8.57;7.63;;;;;;;;;;5067835;28;20504;-75
2022/08/10 05:59:32;;;;;;;10.45;7.85;;;;;;;;;;5035141;28;20045;-75
2022/08/10 06:01:59;;;;;;;11.57;8.45;;;;;;;;;;5067719;28;20056;-75
2022/08/10 06:04:28;;;;;;;9.77;8.35;;;;;;;;;;5035431;28;20103;-75
2022/08/10 06:06:55;;;;;;;10.65;8.45;;;;;;;;;;5035845;28;20045;-75
2022/08/10 06:09:21;;;;;;;10.27;8.10;;;;;;;;;;5036316;28;20100;-75
2022/08/10 06:11:50;;;;;;;11.10;8.30;;;;;;;;;;5066897;28;20049;-75
2022/08/10 06:17:02;;;;;;;8.35;7.40;;;;;;;;;;5067675;28;20054;-75
2022/08/10 06:19:29;;;;;;;11.75;8.80;;;;;;;;;;5066880;28;20057;-75
2022/08/10 06:21:56;;;;;;;11.27;7.65;;;;;;;;;;5035464;28;20222;-75
2022/08/10 06:24:23;;;;;;;12.02;8.35;;;;;;;;;;5066226;28;20053;-75
2022/08/10 06:26:49;;;;;;;7.90;7.20;;;;;;;;;;5033573;28;20505;-75
2022/08/10 06:29:16;;;;;;;8.82;7.97;;;;;;;;;;5066032;28;20052;-75
2022/08/10 06:31:48;;;;;;;12.52;8.55;;;;;;;;;;5066487;28;20481;-74
2022/08/10 06:34:15;;;;;;;10.67;7.23;;;;;;;;;;5033270;28;20049;-75
2022/08/10 06:36:43;;;;;;;9.30;7.43;;;;;;;;;;5066191;28;20045;-75
2022/08/10 06:39:09;;;;;;;10.35;7.10;;;;;;;;;;5033787;28;20056;-75
2022/08/10 06:41:39;;;;;;;7.05;6.10;;;;;;;;;;5065499;28;20222;-75
2022/08/10 06:44:08;;;;;;;6.70;6.10;;;;;;;;;;5033950;28;20037;-75
2022/08/10 06:46:37;;;;;;;11.00;5.60;;;;;;;;;;5065568;28;20053;-74
2022/08/10 06:49:05;;;;;;;8.05;5.70;;;;;;;;;;5033950;28;20045;-74
2022/08/10 06:51:35;;;;;;;7.32;5.50;;;;;;;;;;5066039;28;20045;-74
2022/08/10 06:54:04;;;;;;;7.32;5.18;;;;;;;;;;5065256;28;20053;-75
2022/08/10 06:56:32;;;;;;;6.47;5.78;;;;;;;;;;5034291;28;20048;-75
2022/08/10 06:59:00;;;;;;;6.65;5.45;;;;;;;;;;5033808;28;20100;-75
2022/08/10 07:01:33;;;;;;;7.38;5.32;;;;;;;;;;5033181;28;20052;-75
2022/08/10 07:04:02;;;;;;;5.47;4.97;;;;;;;;;;5065589;28;20042;-75
2022/08/10 07:06:29;;;;;;;5.35;4.80;;;;;;;;;;5065780;28;20049;-75
2022/08/10 07:08:55;;;;;;;6.88;4.80;;;;;;;;;;5064970;28;20081;-75
2022/08/10 07:11:22;;;;;;;6.45;4.30;;;;;;;;;;5033716;28;20049;-75
2022/08/10 07:13:48;;;;;;;5.88;4.65;;;;;;;;;;5065717;28;20053;-75
2022/08/10 07:16:15;;;;;;;5.90;4.15;;;;;;;;;;5032982;28;20053;-75
2022/08/10 07:18:42;;;;;;;5.38;4.53;;;;;;;;;;5032009;28;20099;-75
2022/08/10 07:21:09;;;;;;;7.25;4.80;;;;;;;;;;5032001;28;20049;-75
2022/08/10 07:23:35;;;;;;;5.72;4.72;;;;;;;;;;5028953;28;1057382;-75
2022/08/10 07:26:02;;;;;;;8.05;4.82;;;;;;;;;;5066340;28;20049;-75
2022/08/10 07:28:31;;;;;;;5.55;4.38;;;;;;;;;;5066262;28;20085;-75
2022/08/10 07:30:57;;;;;;;5.95;4.07;;;;;;;;;;5033464;28;20121;-75
2022/08/10 07:33:24;;;;;;;6.15;3.63;;;;;;;;;;5034476;28;20145;-75
2022/08/10 07:35:50;;;;;;;6.28;4.28;;;;;;;;;;5033511;28;20057;-75
2022/08/10 07:38:17;;;;;;;5.13;4.00;;;;;;;;;;5065733;28;20081;-75
2022/08/10 07:40:45;;;;;;;4.55;3.67;;;;;;;;;;5070490;28;20511;-75
2022/08/10 07:43:12;;;;;;;7.13;4.13;;;;;;;;;;5053433;28;20041;-75
2022/08/10 07:45:38;;;;;;;6.38;4.00;;;;;;;;;;5046025;28;20060;-75
2022/08/10 07:48:19;;;;;;;5.85;3.90;;;;;;;;;;5034088;28;20128;-75
2022/08/10 07:50:46;;;;;;;5.75;3.95;;;;;;;;;;5031033;28;20057;-75
2022/08/10 07:53:16;;;;;;;6.40;4.00;;;;;;;;;;5034185;28;20038;-75
2022/08/10 07:55:43;;;;;;;4.55;4.00;;;;;;;;;;5032742;28;20096;-75
2022/08/10 07:58:09;;;;;;;4.95;4.05;;;;;;;;;;5033148;28;20055;-75
2022/08/10 08:00:36;;;;;;;4.60;3.90;;;;;;;;;;5065763;28;20053;-75
2022/08/10 08:03:06;;;;;;;5.95;4.32;;;;;;;;;;5033586;28;20049;-75
2022/08/10 08:05:32;;;;;;;5.30;4.40;;;;;;;;;;5082765;28;20049;-75
2022/08/10 08:07:59;;;;;;;4.50;4.10;;;;;;;;;;5052671;28;20045;-75
2022/08/10 08:10:27;;;;;;;6.03;4.63;;;;;;;;;;5046680;28;20128;-75
2022/08/10 08:12:56;;;;;;;5.03;4.20;;;;;;;;;;5031588;28;20489;-75
2022/08/10 08:15:23;;;;;;;5.07;3.97;;;;;;;;;;5033570;28;20060;-75
2022/08/10 08:17:49;;;;;;;4.97;4.03;;;;;;;;;;5037442;28;20048;-75
2022/08/10 08:20:16;;;;;;;5.22;4.72;;;;;;;;;;5051145;28;20084;-75
2022/08/10 08:22:44;;;;;;;4.43;4.03;;;;;;;;;;5051581;28;20060;-75
2022/08/10 08:25:11;;;;;;;4.75;4.07;;;;;;;;;;5038575;28;20049;-75
2022/08/10 08:27:38;;;;;;;4.88;4.38;;;;;;;;;;5033495;28;20371;-75
2022/08/10 08:30:06;;;;;;;4.93;4.00;;;;;;;;;;5031743;28;20095;-74
2022/08/10 08:32:35;;;;;;;4.82;4.07;;;;;;;;;;5030669;28;20049;-75
2022/08/10 08:35:05;;;;;;;4.35;3.95;;;;;;;;;;5033357;28;20448;-75
2022/08/10 08:37:32;;;;;;;9.57;6.68;;;;;;;;;;5053058;28;20045;-75
2022/08/10 08:39:59;;;;;;;5.18;4.30;;;;;;;;;;5051188;28;20045;-75
2022/08/10 08:42:28;;;;;;;5.35;4.20;;;;;;;;;;5051326;28;20087;-75
2022/08/10 08:45:03;;;;;;;7.25;3.88;;;;;;;;;;5045642;28;20056;-75
2022/08/10 08:47:52;;;;;;;7.88;4.10;;;;;;;;;;5031260;28;20049;-74
2022/08/10 08:50:31;;;;;;;4.75;3.90;;;;;;;;;;5038835;28;20136;-75
2022/08/10 08:53:16;;;;;;;4.47;3.60;;;;;;;;;;5032592;28;20049;-75
2022/08/10 08:55:44;;;;;;;5.53;3.72;;;;;;;;;;5033001;28;20045;-74
2022/08/10 08:58:19;;;;;;;5.38;3.75;;;;;;;;;;5033084;28;20049;-75
2022/08/10 09:00:57;;;;;;;3.85;3.45;;;;;;;;;;5031666;28;20049;-75
2022/08/10 09:03:29;;;;;;;5.20;3.70;;;;;;;;;;5031508;28;20551;-75
2022/08/10 09:06:01;;;;;;;4.30;3.30;;;;;;;;;;5031637;28;20072;-75
2022/08/10 09:08:45;;;;;;;3.60;3.30;;;;;;;;;;5031824;28;20092;-75
2022/08/10 09:11:28;;;;;;;4.63;3.53;;;;;;;;;;5064914;28;20053;-75
2022/08/10 09:13:58;;;;;;;3.80;3.28;;;;;;;;;;5032456;28;20037;-75
2022/08/10 09:16:27;;;;;;;4.68;3.20;;;;;;;;;;5032161;28;20038;-75
2022/08/10 09:18:56;;;;;;;11.10;4.35;;;;;;;;;;5065059;28;20064;-75
2022/08/10 09:21:46;;;;;;;3.85;3.10;;;;;;;;;;5063492;28;20053;-75
2022/08/10 09:24:27;;;;;;;6.35;3.40;;;;;;;;;;5031999;28;20054;-75
2022/08/10 09:26:56;;;;;;;4.03;3.35;;;;;;;;;;5032580;28;20048;-75
2022/08/10 09:29:30;;;;;;;4.15;2.97;;;;;;;;;;5031734;28;20132;-75
2022/08/10 09:32:19;;;;;;;3.47;2.60;;;;;;;;;;5064787;28;20069;-75
2022/08/10 09:35:04;;;;;;;3.10;2.83;;;;;;;;;;5064545;28;20060;-75
2022/08/10 09:37:39;;;;;;;3.45;2.97;;;;;;;;;;5063712;28;20046;-75
2022/08/10 09:40:11;;;;;;;12.73;4.00;;;;;;;;;;5063604;28;20053;-75
2022/08/10 09:42:40;;;;;;;3.92;3.22;;;;;;;;;;5045006;28;20045;-75
2022/08/10 09:45:16;;;;;;;3.88;3.00;;;;;;;;;;5050675;28;20052;-75
2022/08/10 09:47:53;;;;;;;4.15;2.72;;;;;;;;;;5050995;28;20072;-75
2022/08/10 09:50:45;;;;;;;3.25;2.67;;;;;;;;;;5040125;28;20580;-75
2022/08/10 09:53:30;;;;;;;5.03;3.20;;;;;;;;;;5031624;28;20111;-75
2022/08/10 09:56:15;;;;;;;5.40;2.75;;;;;;;;;;5030743;28;20049;-75
2022/08/10 09:58:59;;;;;;;2.85;2.58;;;;;;;;;;5029803;28;20050;-75
2022/08/10 10:01:44;;;;;;;4.18;2.70;;;;;;;;;;5032000;28;20412;-75
2022/08/10 10:04:25;;;;;;;6.05;2.97;;;;;;;;;;5031385;28;20566;-75
2022/08/10 10:06:54;;;;;;;4.50;2.80;;;;;;;;;;5030779;28;20134;-75
2022/08/10 10:09:26;;;;;;;4.20;2.70;;;;;;;;;;5032038;28;20037;-75
2022/08/10 10:12:10;;;;;;;3.22;2.60;;;;;;;;;;5031409;28;20042;-75
2022/08/10 10:17:56;;;;;;;3.58;2.72;;;;;;;;;;5045551;28;20045;-75
2022/08/10 10:20:32;;;;;;;5.20;3.33;;;;;;;;;;5053967;28;20118;-75
2022/08/10 10:23:21;;;;;;;5.45;2.85;;;;;;;;;;5055390;28;20412;-75
2022/08/10 10:25:53;;;;;;;2.70;2.50;;;;;;;;;;5083785;28;20052;-75
2022/08/10 10:28:44;;;;;;;2.88;2.15;;;;;;;;;;5036161;28;20064;-75
2022/08/10 10:31:13;;;;;;;3.63;2.38;;;;;;;;;;5037596;28;20053;-75
2022/08/10 10:34:06;;;;;;;4.50;2.58;;;;;;;;;;5054534;28;20143;-75
2022/08/10 10:36:32;;;;;;;2.72;2.53;;;;;;;;;;5047003;28;20045;-75
2022/08/10 10:38:59;;;;;;;3.22;2.20;;;;;;;;;;5034521;28;20091;-76
2022/08/10 10:41:31;;;;;;;4.95;2.47;;;;;;;;;;5048338;28;20381;-75
2022/08/10 10:43:57;;;;;;;2.90;2.22;;;;;;;;;;5053352;28;20037;-75
2022/08/10 10:46:29;;;;;;;2.65;2.15;;;;;;;;;;5034208;28;20051;-75
2022/08/10 10:49:03;;;;;;;2.37;2.17;;;;;;;;;;5035511;28;20041;-76
2022/08/10 10:51:52;;;;;;;5.50;2.10;;;;;;;;;;5033785;28;20056;-75
2022/08/10 10:54:28;;;;;;;4.93;2.10;;;;;;;;;;5023189;28;20148;-75
2022/08/10 10:56:57;;;;;;;3.50;2.05;;;;;;;;;;5035199;28;20049;-75
2022/08/10 10:59:26;;;;;;;4.72;2.40;;;;;;;;;;5067127;28;20044;-75
2022/08/10 11:01:52;;;;;;;3.22;2.30;;;;;;;;;;5034057;28;20129;-75
2022/08/10 11:04:39;;;;;;;3.75;2.30;;;;;;;;;;5034495;28;20124;-76
2022/08/10 11:07:16;;;;;;;4.03;2.13;;;;;;;;;;5033830;28;20473;-76
2022/08/10 11:09:44;;;;;;;2.10;2.00;;;;;;;;;;5066457;28;20054;-75
2022/08/10 11:12:23;;;;;;;3.03;2.33;;;;;;;;;;5034519;28;20064;-75
2022/08/10 11:15:02;;;;;;;2.65;2.05;;;;;;;;;;5065712;28;20056;-75
2022/08/10 11:17:54;;;;;;;3.33;2.00;;;;;;;;;;5066367;28;20049;-75
2022/08/10 11:20:20;;;;;;;3.50;2.00;;;;;;;;;;5032112;28;20412;-75
2022/08/10 11:22:57;;;;;;;2.95;2.08;;;;;;;;;;5065213;28;20083;-76
2022/08/10 11:25:23;;;;;;;2.67;2.40;;;;;;;;;;5033350;28;20057;-75
2022/08/10 11:27:54;;;;;;;2.30;2.10;;;;;;;;;;5034080;28;20048;-75
2022/08/10 11:30:25;;;;;;;2.97;2.10;;;;;;;;;;5038103;28;20549;-75
2022/08/10 11:33:11;;;;;;;2.58;2.08;;;;;;;;;;5054460;28;20087;-75
2022/08/10 11:35:46;;;;;;;3.10;1.98;;;;;;;;;;5053260;28;20053;-75
2022/08/10 11:38:35;;;;;;;2.92;1.77;;;;;;;;;;5042197;28;20443;-75
2022/08/10 11:41:11;;;;;;;2.75;1.80;;;;;;;;;;5029957;28;20057;-75
2022/08/10 11:43:44;;;;;;;2.30;2.10;;;;;;;;;;5047469;28;20049;-76
2022/08/10 11:46:19;;;;;;;4.13;2.35;;;;;;;;;;5043303;28;20444;-76
2022/08/10 11:48:48;;;;;;;2.85;1.92;;;;;;;;;;5032425;28;20092;-76
2022/08/10 11:51:32;;;;;;;2.90;1.95;;;;;;;;;;5034010;28;20143;-76
2022/08/10 11:54:03;;;;;;;2.13;1.92;;;;;;;;;;5052649;28;20045;-76
2022/08/10 11:56:33;;;;;;;3.03;2.00;;;;;;;;;;5052673;28;20135;-76
2022/08/10 12:01:44;;;;;;;12.55;3.40;;;;;;;;;;5033948;28;20049;-76
2022/08/10 12:04:11;;;;;;;4.68;2.75;;;;;;;;;;5032790;28;20077;-76
2022/08/10 12:06:38;;;;;;;2.92;2.20;;;;;;;;;;5033563;28;20053;-76
2022/08/10 12:09:06;;;;;;;2.88;2.10;;;;;;;;;;5033254;28;20128;-77
2022/08/10 12:11:32;;;;;;;2.38;2.20;;;;;;;;;;5064954;28;20061;-76
2022/08/10 12:14:05;;;;;;;2.22;2.03;;;;;;;;;;5033359;28;20105;-76
2022/08/10 12:16:34;;;;;;;4.57;3.20;;;;;;;;;;5033378;28;20460;-76
2022/08/10 12:19:09;;;;;;;8.45;4.03;;;;;;;;;;5064214;28;20056;-76
2022/08/10 12:21:40;;;;;;;6.18;3.42;;;;;;;;;;5033137;28;20072;-76
2022/08/10 12:24:15;;;;;;;5.28;3.17;;;;;;;;;;5032701;28;20045;-76
2022/08/10 12:26:49;;;;;;;5.72;3.55;;;;;;;;;;5033327;28;20132;-76
2022/08/10 12:29:31;;;;;;;5.38;3.17;;;;;;;;;;5033256;28;20080;-76
2022/08/10 12:32:01;;;;;;;4.17;3.60;;;;;;;;;;5032217;28;20084;-76
2022/08/10 12:34:27;;;;;;;6.55;4.07;;;;;;;;;;5064717;28;20300;-76
2022/08/10 12:36:57;;;;;;;7.78;4.05;;;;;;;;;;5064467;28;20486;-76
2022/08/10 12:39:27;;;;;;;6.43;4.22;;;;;;;;;;5064136;28;20392;-76
2022/08/10 12:41:56;;;;;;;9.07;4.97;;;;;;;;;;5064709;28;20048;-76
2022/08/10 12:44:28;;;;;;;6.10;4.28;;;;;;;;;;5033037;28;20041;-76
2022/08/10 12:46:58;;;;;;;8.00;3.80;;;;;;;;;;5032507;28;20390;-75
2022/08/10 12:49:39;;;;;;;9.15;4.78;;;;;;;;;;5065126;28;20041;-76
2022/08/10 12:52:11;;;;;;;9.43;5.75;;;;;;;;;;5064439;28;20084;-76
2022/08/10 12:54:38;;;;;;;5.28;4.22;;;;;;;;;;5064431;28;20525;-75
2022/08/10 12:57:09;;;;;;;6.45;4.35;;;;;;;;;;5047327;28;20489;-76
2022/08/10 12:59:42;;;;;;;6.78;4.38;;;;;;;;;;5051961;28;20052;-75
2022/08/10 13:02:09;;;;;;;6.40;3.60;;;;;;;;;;5040239;28;20050;-76
2022/08/10 13:04:37;;;;;;;5.78;3.78;;;;;;;;;;5032443;28;20064;-76
2022/08/10 13:07:04;;;;;;;5.60;4.03;;;;;;;;;;5031740;28;20037;-76
2022/08/10 13:09:31;;;;;;;4.57;3.88;;;;;;;;;;5031288;28;20053;-76
2022/08/10 13:12:14;;;;;;;7.40;3.85;;;;;;;;;;5064752;28;20053;-76
2022/08/10 13:14:46;;;;;;;5.90;3.08;;;;;;;;;;5031956;28;20095;-76
2022/08/10 13:17:20;;;;;;;5.30;3.40;;;;;;;;;;5032313;28;20046;-76
2022/08/10 13:19:47;;;;;;;6.50;4.00;;;;;;;;;;5032533;28;20404;-76
2022/08/10 13:22:15;;;;;;;6.93;4.20;;;;;;;;;;5063812;28;20485;-76
2022/08/10 13:24:43;;;;;;;4.93;3.10;;;;;;;;;;5064705;28;20397;-76
2022/08/10 13:27:11;;;;;;;4.78;3.10;;;;;;;;;;5063905;28;20053;-76
2022/08/10 13:29:42;;;;;;;5.47;4.07;;;;;;;;;;5031828;28;20072;-76
2022/08/10 13:32:09;;;;;;;4.53;3.70;;;;;;;;;;5032235;28;20041;-76
2022/08/10 13:34:36;;;;;;;3.92;3.50;;;;;;;;;;5041581;28;20083;-76
2022/08/10 13:37:08;;;;;;;4.22;3.83;;;;;;;;;;5050415;28;20128;-76
2022/08/10 13:39:41;;;;;;;4.70;3.65;;;;;;;;;;5052230;28;20544;-76
2022/08/10 13:42:09;;;;;;;4.22;3.47;;;;;;;;;;5039575;28;20100;-76
2022/08/10 13:44:38;;;;;;;4.15;3.35;;;;;;;;;;5079742;28;20049;-76
2022/08/10 13:47:04;;;;;;;3.58;3.28;;;;;;;;;;5050989;28;20485;-76
2022/08/10 13:49:32;;;;;;;4.88;3.30;;;;;;;;;;5052635;28;20049;-76
2022/08/10 13:51:58;;;;;;;5.10;3.55;;;;;;;;;;5038505;28;20042;-76
2022/08/10 13:54:26;;;;;;;5.13;2.97;;;;;;;;;;5034641;28;20049;-76
2022/08/10 13:56:53;;;;;;;5.28;3.15;;;;;;;;;;5033880;28;20062;-76
2022/08/10 13:59:20;;;;;;;3.50;3.10;;;;;;;;;;5036155;28;20105;-76
2022/08/10 14:01:50;;;;;;;3.17;2.88;;;;;;;;;;5036076;28;20045;-76
2022/08/10 14:04:17;;;;;;;4.70;3.25;;;;;;;;;;5067468;28;20396;-76
2022/08/10 14:06:49;;;;;;;4.05;2.80;;;;;;;;;;5043484;28;20443;-76
2022/08/10 14:09:16;;;;;;;3.83;3.15;;;;;;;;;;5056143;28;20051;-77
2022/08/10 14:11:46;;;;;;;4.45;3.58;;;;;;;;;;5042769;28;20053;-76
2022/08/10 14:14:20;;;;;;;5.97;2.80;;;;;;;;;;5035720;28;20091;-76
2022/08/10 14:16:47;;;;;;;5.03;2.80;;;;;;;;;;5033730;28;20045;-76
2022/08/10 14:19:16;;;;;;;4.75;2.70;;;;;;;;;;5067757;28;20045;-76
2022/08/10 14:21:42;;;;;;;5.35;2.78;;;;;;;;;;5049060;28;20059;-77
2022/08/10 14:24:21;;;;;;;4.00;2.70;;;;;;;;;;5054751;28;20077;-76
2022/08/10 14:26:49;;;;;;;4.25;2.65;;;;;;;;;;5045193;28;20045;-76
2022/08/10 14:29:16;;;;;;;5.50;2.80;;;;;;;;;;5035354;28;20056;-77
2022/08/10 14:31:47;;;;;;;4.07;2.50;;;;;;;;;;5034488;28;20068;-76
2022/08/10 14:34:13;;;;;;;3.53;2.33;;;;;;;;;;5067740;28;20378;-77
2022/08/10 14:36:42;;;;;;;4.50;2.42;;;;;;;;;;5035447;28;20050;-77
2022/08/10 14:39:11;;;;;;;3.80;2.67;;;;;;;;;;5034341;28;20047;-77
2022/08/10 14:41:38;;;;;;;5.47;2.38;;;;;;;;;;5035397;28;20042;-77
2022/08/10 14:44:06;;;;;;;3.80;2.30;;;;;;;;;;5034741;28;20045;-77
2022/08/10 14:46:33;;;;;;;3.75;2.15;;;;;;;;;;5034557;28;20053;-77
2022/08/10 14:48:59;;;;;;;5.30;2.15;;;;;;;;;;5035440;28;20481;-77
2022/08/10 14:51:26;;;;;;;3.30;2.28;;;;;;;;;;5034704;28;20042;-77
2022/08/10 14:53:57;;;;;;;3.05;2.20;;;;;;;;;;5034533;28;20057;-77
2022/08/10 14:56:29;;;;;;;11.60;6.70;;;;;;;;;;5034935;28;20448;-77
2022/08/10 14:58:56;;;;;;;;;;;;;;;;;;5066853;28;20048;-78
2022/08/10 15:01:22;;;;;;;3.13;2.17;;;;;;;;;;5037907;28;19921;-77
2022/08/10 15:03:52;;;;;;;2.92;2.00;;;;;;;;;;5054304;28;20400;-78
2022/08/10 15:06:20;;;;;;;2.63;1.83;;;;;;;;;;5054058;28;20445;-78
2022/08/10 15:08:47;;;;;;;3.65;2.05;;;;;;;;;;5054703;28;20041;-77
2022/08/10 15:11:14;;;;;;;3.35;1.83;;;;;;;;;;5042393;28;20095;-78